createdAt,value
2022-11-06T00:00:45.755Z,1.30
2022-11-06T00:03:13.125Z,1.30
2022-11-06T00:06:00.327Z,1.30
2022-11-06T00:08:38.572Z,1.20
2022-11-06T00:11:11.091Z,1.20
2022-11-06T00:13:38.678Z,1.20
2022-11-06T00:16:07.438Z,1.10
2022-11-06T00:18:35.022Z,1.10
2022-11-06T00:21:15.580Z,1.10
2022-11-06T00:23:42.841Z,1.00
2022-11-06T00:26:12.147Z,0.90
2022-11-06T00:28:39.634Z,1.00
2022-11-06T00:31:08.792Z,1.00
2022-11-06T00:33:36.431Z,1.00
2022-11-06T00:36:05.144Z,1.00
2022-11-06T00:38:32.344Z,1.00
2022-11-06T00:41:04.328Z,1.00
2022-11-06T00:43:31.296Z,1.00
2022-11-06T00:46:03.008Z,1.10
2022-11-06T00:48:29.893Z,1.00
2022-11-06T00:51:03.384Z,1.00
2022-11-06T00:53:30.360Z,1.00
2022-11-06T00:56:07.729Z,0.90
2022-11-06T00:58:34.941Z,0.90
2022-11-06T01:01:10.863Z,0.80
2022-11-06T01:03:40.474Z,0.80
2022-11-06T01:06:19.080Z,0.80
2022-11-06T01:08:47.550Z,0.70
2022-11-06T01:11:21.700Z,0.80
2022-11-06T01:13:54.159Z,1.00
2022-11-06T01:16:22.270Z,1.00
2022-11-06T01:18:49.694Z,0.90
2022-11-06T01:21:20.214Z,0.90
2022-11-06T01:23:47.601Z,0.70
2022-11-06T01:26:15.687Z,0.50
2022-11-06T01:28:45.603Z,0.40
2022-11-06T01:31:15.841Z,0.40
2022-11-06T01:33:43.061Z,0.50
2022-11-06T01:36:14.766Z,0.50
2022-11-06T01:38:42.957Z,0.60
2022-11-06T01:41:13.669Z,0.70
2022-11-06T01:43:54.660Z,0.70
2022-11-06T01:46:24.988Z,0.70
2022-11-06T01:49:08.183Z,0.70
2022-11-06T01:51:40.507Z,0.70
2022-11-06T01:54:08.605Z,0.70
2022-11-06T01:56:38.007Z,0.70
2022-11-06T01:59:07.629Z,0.70
2022-11-06T02:01:34.518Z,0.70
2022-11-06T02:04:09.589Z,0.80
2022-11-06T02:06:37.217Z,0.70
2022-11-06T02:09:11.206Z,0.80
2022-11-06T02:11:41.007Z,0.80
2022-11-06T02:14:29.553Z,0.90
2022-11-06T02:17:13.964Z,0.80
2022-11-06T02:19:52.932Z,0.80
2022-11-06T02:22:28.555Z,0.80
2022-11-06T02:25:03.053Z,0.80
2022-11-06T02:27:31.435Z,0.70
2022-11-06T02:30:08.149Z,0.70
2022-11-06T02:32:44.026Z,0.70
2022-11-06T02:35:19.601Z,0.70
2022-11-06T02:37:49.015Z,0.60
2022-11-06T02:40:17.665Z,0.60
2022-11-06T02:42:49.033Z,0.60
2022-11-06T02:45:19.262Z,0.50
2022-11-06T02:47:49.752Z,0.50
2022-11-06T02:50:24.257Z,0.40
2022-11-06T02:52:55.720Z,0.40
2022-11-06T02:55:35.565Z,0.30
2022-11-06T02:58:08.510Z,0.30
2022-11-06T03:00:37.438Z,0.30
2022-11-06T03:03:21.555Z,0.30
2022-11-06T03:05:57.912Z,0.30
2022-11-06T03:08:33.595Z,0.30
2022-11-06T03:11:13.444Z,0.30
2022-11-06T03:13:52.665Z,0.30
2022-11-06T03:16:28.893Z,0.20
2022-11-06T03:19:20.802Z,0.20
2022-11-06T03:22:15.964Z,0.20
2022-11-06T03:24:55.702Z,0.20
2022-11-06T03:27:53.594Z,0.10
2022-11-06T03:30:20.780Z,0.00
2022-11-06T03:33:13.896Z,0.10
2022-11-06T03:35:52.967Z,0.10
2022-11-06T03:38:25.343Z,0.00
2022-11-06T03:40:57.938Z,-0.10
2022-11-06T03:43:28.603Z,-0.20
2022-11-06T03:45:56.623Z,-0.20
2022-11-06T03:48:32.957Z,-0.20
2022-11-06T03:51:06.166Z,-0.10
2022-11-06T03:53:40.951Z,-0.10
2022-11-06T03:56:14.722Z,0.00
2022-11-06T03:58:45.656Z,0.00
2022-11-06T04:01:15.591Z,0.00
2022-11-06T04:03:49.749Z,0.00
2022-11-06T04:06:44.008Z,0.00
2022-11-06T04:09:32.910Z,0.00
2022-11-06T04:12:22.661Z,0.00
2022-11-06T04:14:53.099Z,-0.10
2022-11-06T04:17:21.358Z,-0.10
2022-11-06T04:19:52.571Z,-0.10
2022-11-06T04:22:38.131Z,-0.10
2022-11-06T04:25:56.195Z,-0.10
2022-11-06T04:28:53.520Z,-0.20
2022-11-06T04:31:41.924Z,-0.10
2022-11-06T04:34:16.959Z,-0.10
2022-11-06T04:36:51.841Z,-0.20
2022-11-06T04:40:03.149Z,-0.10
2022-11-06T04:42:39.962Z,-0.10
2022-11-06T04:45:32.705Z,0.00
2022-11-06T04:48:00.913Z,-0.10
2022-11-06T04:50:30.604Z,-0.10
2022-11-06T04:52:59.496Z,0.00
2022-11-06T04:55:29.803Z,-0.10
2022-11-06T04:57:56.638Z,0.00
2022-11-06T05:00:23.822Z,0.00
2022-11-06T05:02:50.751Z,0.10
2022-11-06T05:05:17.711Z,0.00
2022-11-06T05:07:44.590Z,0.00
2022-11-06T05:10:11.697Z,0.00
2022-11-06T05:12:38.686Z,0.00
2022-11-06T05:15:06.066Z,0.00
2022-11-06T05:17:36.500Z,-0.10
2022-11-06T05:20:04.595Z,-0.20
2022-11-06T05:23:07.064Z,-0.20
2022-11-06T05:25:36.735Z,-0.30
2022-11-06T05:28:08.669Z,-0.30
2022-11-06T05:30:37.327Z,-0.30
2022-11-06T05:33:04.712Z,-0.40
2022-11-06T05:35:31.566Z,-0.30
2022-11-06T05:38:02.762Z,-0.30
2022-11-06T05:40:29.816Z,-0.30
2022-11-06T05:42:56.737Z,-0.40
2022-11-06T05:45:23.559Z,-0.40
2022-11-06T05:47:50.410Z,-0.30
2022-11-06T05:50:17.435Z,-0.30
2022-11-06T05:52:44.769Z,-0.30
2022-11-06T05:55:14.866Z,-0.30
2022-11-06T05:57:42.353Z,-0.40
2022-11-06T06:00:11.061Z,-0.40
2022-11-06T06:02:41.394Z,-0.40
2022-11-06T06:05:08.902Z,-0.40
2022-11-06T06:07:35.980Z,-0.40
2022-11-06T06:10:03.003Z,-0.50
2022-11-06T06:12:29.826Z,-0.60
2022-11-06T06:14:56.681Z,-0.60
2022-11-06T06:17:23.814Z,-0.60
2022-11-06T06:19:50.677Z,-0.40
2022-11-06T06:22:18.117Z,-0.40
2022-11-06T06:24:45.035Z,-0.40
2022-11-06T06:27:12.045Z,-0.40
2022-11-06T06:29:38.824Z,-0.40
2022-11-06T06:32:06.023Z,-0.40
2022-11-06T06:34:32.863Z,-0.30
2022-11-06T06:37:00.398Z,-0.20
2022-11-06T06:39:27.200Z,-0.20
2022-11-06T06:41:54.012Z,-0.20
2022-11-06T06:44:20.836Z,-0.20
2022-11-06T06:46:47.616Z,-0.10
2022-11-06T06:49:14.517Z,-0.10
2022-11-06T06:51:41.304Z,0.00
2022-11-06T06:54:08.544Z,0.10
2022-11-06T06:56:35.400Z,0.10
2022-11-06T06:59:02.238Z,0.20
2022-11-06T07:01:29.224Z,0.10
2022-11-06T07:04:01.321Z,0.20
2022-11-06T07:06:30.723Z,0.20
2022-11-06T07:08:57.533Z,0.30
2022-11-06T07:11:24.904Z,0.40
2022-11-06T07:13:51.695Z,0.80
2022-11-06T07:16:18.782Z,0.90
2022-11-06T07:18:45.580Z,1.00
2022-11-06T07:21:13.196Z,1.40
2022-11-06T07:23:40.497Z,2.00
2022-11-06T07:26:07.655Z,2.40
2022-11-06T07:28:35.056Z,2.50
2022-11-06T07:31:04.431Z,2.70
2022-11-06T07:33:31.955Z,3.10
2022-11-06T07:36:10.100Z,3.20
2022-11-06T07:38:38.599Z,3.30
2022-11-06T07:41:13.542Z,4.10
2022-11-06T07:43:41.666Z,4.90
2022-11-06T07:46:11.520Z,5.60
2022-11-06T07:48:39.642Z,5.60
2022-11-06T07:51:08.178Z,5.90
2022-11-06T07:53:35.417Z,6.00
2022-11-06T07:56:02.556Z,5.60
2022-11-06T07:58:29.929Z,4.70
2022-11-06T08:00:58.733Z,4.20
2022-11-06T08:03:26.917Z,4.00
2022-11-06T08:05:53.730Z,3.50
2022-11-06T08:08:20.638Z,3.50
2022-11-06T08:10:47.822Z,3.60
2022-11-06T08:13:17.423Z,3.80
2022-11-06T08:15:44.479Z,4.40
2022-11-06T08:18:12.087Z,4.70
2022-11-06T08:20:39.911Z,4.60
2022-11-06T08:23:08.281Z,4.60
2022-11-06T08:25:35.674Z,4.70
2022-11-06T08:28:03.640Z,5.00
2022-11-06T08:30:31.584Z,4.80
2022-11-06T08:33:07.821Z,4.70
2022-11-06T08:35:34.926Z,4.70
2022-11-06T08:38:02.456Z,4.50
2022-11-06T08:40:31.086Z,4.40
2022-11-06T08:43:05.656Z,4.40
2022-11-06T08:45:32.552Z,4.30
2022-11-06T08:48:03.613Z,4.10
2022-11-06T08:50:32.124Z,3.90
2022-11-06T08:53:04.455Z,3.80
2022-11-06T08:55:36.048Z,3.80
2022-11-06T08:58:03.383Z,3.60
2022-11-06T09:00:30.671Z,3.70
2022-11-06T09:03:07.004Z,3.70
2022-11-06T09:05:33.922Z,3.80
2022-11-06T09:08:01.079Z,3.90
2022-11-06T09:10:28.733Z,3.90
2022-11-06T09:12:58.674Z,3.80
2022-11-06T09:15:26.288Z,3.90
2022-11-06T09:17:53.299Z,3.90
2022-11-06T09:20:21.656Z,3.90
2022-11-06T09:22:49.112Z,4.00
2022-11-06T09:25:16.087Z,4.20
2022-11-06T09:27:43.101Z,4.40
2022-11-06T09:30:12.086Z,4.60
2022-11-06T09:32:39.288Z,4.80
2022-11-06T09:35:06.861Z,4.60
2022-11-06T09:37:33.702Z,4.60
2022-11-06T09:40:06.114Z,4.80
2022-11-06T09:42:56.993Z,5.20
2022-11-06T09:45:27.356Z,5.70
2022-11-06T09:48:07.550Z,5.80
2022-11-06T09:50:44.322Z,5.80
2022-11-06T09:53:22.122Z,5.50
2022-11-06T09:55:49.740Z,5.80
2022-11-06T09:58:38.098Z,5.60
2022-11-06T10:01:26.772Z,5.60
2022-11-06T10:03:58.759Z,5.40
2022-11-06T10:06:27.293Z,5.60
2022-11-06T10:08:58.295Z,5.50
2022-11-06T10:12:22.442Z,5.60
2022-11-06T10:15:12.819Z,5.80
2022-11-06T10:17:50.075Z,5.40
2022-11-06T10:20:28.256Z,5.70
2022-11-06T10:23:19.899Z,5.60
2022-11-06T10:26:14.437Z,5.70
2022-11-06T10:28:51.409Z,5.80
2022-11-06T10:31:46.177Z,5.90
2022-11-06T10:34:31.605Z,5.90
2022-11-06T10:37:06.043Z,6.00
2022-11-06T10:39:35.936Z,6.10
2022-11-06T10:42:12.344Z,6.20
2022-11-06T10:45:03.168Z,6.10
2022-11-06T10:47:40.212Z,6.40
2022-11-06T10:50:13.215Z,6.20
2022-11-06T10:52:54.726Z,6.40
2022-11-06T10:55:56.481Z,6.70
2022-11-06T10:58:29.142Z,6.80
2022-11-06T11:01:02.493Z,6.80
2022-11-06T11:03:35.961Z,7.20
2022-11-06T11:06:04.885Z,7.60
2022-11-06T11:08:31.671Z,7.70
2022-11-06T11:11:13.975Z,7.70
2022-11-06T11:13:45.738Z,7.80
2022-11-06T11:16:27.908Z,8.00
2022-11-06T11:18:55.262Z,8.00
2022-11-06T11:21:27.947Z,8.00
2022-11-06T11:24:00.855Z,8.40
2022-11-06T11:26:30.311Z,8.40
2022-11-06T11:28:59.677Z,8.70
2022-11-06T11:31:34.229Z,8.70
2022-11-06T11:34:03.925Z,8.90
2022-11-06T11:36:55.165Z,9.10
2022-11-06T11:39:28.849Z,9.30
2022-11-06T11:42:26.795Z,9.00
2022-11-06T11:45:08.793Z,9.30
2022-11-06T11:47:41.439Z,9.20
2022-11-06T11:50:33.214Z,9.00
2022-11-06T11:53:18.883Z,8.90
2022-11-06T11:55:48.821Z,9.20
2022-11-06T11:58:21.561Z,9.70
2022-11-06T12:01:04.274Z,9.80
2022-11-06T12:03:47.998Z,10.00
2022-11-06T12:06:19.368Z,10.40
2022-11-06T12:08:53.755Z,10.20
2022-11-06T12:11:30.133Z,9.90
2022-11-06T12:14:25.171Z,9.80
2022-11-06T12:17:00.764Z,9.80
2022-11-06T12:19:31.097Z,9.40
2022-11-06T12:22:03.601Z,9.30
2022-11-06T12:24:45.107Z,9.00
2022-11-06T12:27:25.000Z,9.10
2022-11-06T12:30:05.037Z,9.10
2022-11-06T12:32:32.303Z,9.10
2022-11-06T12:35:06.987Z,8.80
2022-11-06T12:37:58.218Z,8.80
2022-11-06T12:40:30.906Z,8.50
2022-11-06T12:43:28.982Z,8.30
2022-11-06T12:46:14.385Z,8.30
2022-11-06T12:49:05.942Z,8.30
2022-11-06T12:51:50.349Z,8.10
2022-11-06T12:54:54.994Z,8.00
2022-11-06T12:57:39.884Z,7.90
2022-11-06T13:00:18.798Z,7.90
2022-11-06T13:03:10.381Z,7.90
2022-11-06T13:05:47.013Z,7.90
2022-11-06T13:08:35.338Z,7.80
2022-11-06T13:11:14.403Z,7.80
2022-11-06T13:14:01.256Z,7.80
2022-11-06T13:16:46.061Z,7.70
2022-11-06T13:19:21.313Z,7.80
2022-11-06T13:21:51.175Z,7.70
2022-11-06T13:24:27.023Z,7.70
2022-11-06T13:27:08.560Z,7.80
2022-11-06T13:29:38.502Z,7.80
2022-11-06T13:32:13.324Z,7.90
2022-11-06T13:34:43.162Z,7.90
2022-11-06T13:37:37.855Z,7.90
2022-11-06T13:40:32.439Z,7.90
2022-11-06T13:43:04.870Z,7.90
2022-11-06T13:45:51.031Z,7.80
2022-11-06T13:48:34.517Z,7.80
2022-11-06T13:51:22.468Z,7.90
2022-11-06T13:54:13.066Z,7.70
2022-11-06T13:57:28.015Z,7.60
2022-11-06T14:00:14.087Z,7.60
2022-11-06T14:03:07.798Z,7.50
2022-11-06T14:05:55.789Z,7.50
2022-11-06T14:09:09.334Z,7.30
2022-11-06T14:11:40.263Z,7.30
2022-11-06T14:14:22.381Z,7.20
2022-11-06T14:17:17.372Z,7.20
2022-11-06T14:19:51.072Z,7.20
2022-11-06T14:22:34.056Z,7.20
2022-11-06T14:25:02.272Z,7.30
2022-11-06T14:27:29.450Z,7.40
2022-11-06T14:30:06.979Z,7.60
2022-11-06T14:32:36.025Z,7.70
2022-11-06T14:35:31.083Z,7.80
2022-11-06T14:38:10.943Z,7.70
2022-11-06T14:40:39.347Z,7.60
2022-11-06T14:43:17.921Z,7.50
2022-11-06T14:45:57.041Z,7.30
2022-11-06T14:48:31.721Z,7.10
2022-11-06T14:51:01.521Z,7.00
2022-11-06T14:53:33.167Z,6.90
2022-11-06T14:56:20.209Z,6.80
2022-11-06T14:58:55.642Z,6.60
2022-11-06T15:01:32.273Z,6.50
2022-11-06T15:04:00.503Z,6.40
2022-11-06T15:06:33.303Z,6.30
2022-11-06T15:09:08.823Z,6.20
2022-11-06T15:11:47.472Z,6.20
2022-11-06T15:14:14.833Z,6.00
2022-11-06T15:16:51.997Z,6.00
2022-11-06T15:19:24.865Z,6.00
2022-11-06T15:22:08.318Z,6.00
2022-11-06T15:24:47.833Z,5.90
2022-11-06T15:27:25.615Z,5.90
2022-11-06T15:29:56.033Z,5.90
2022-11-06T15:32:29.645Z,5.80
2022-11-06T15:35:28.533Z,5.80
2022-11-06T15:38:11.109Z,5.80
2022-11-06T15:40:39.595Z,5.70
2022-11-06T15:43:08.008Z,5.60
2022-11-06T15:45:34.942Z,5.60
2022-11-06T15:48:05.250Z,5.50
2022-11-06T15:50:37.240Z,5.50
2022-11-06T15:53:23.519Z,5.50
2022-11-06T15:55:59.661Z,5.40
2022-11-06T15:58:36.711Z,5.40
2022-11-06T16:01:06.135Z,5.40
2022-11-06T16:03:51.524Z,5.30
2022-11-06T16:06:19.115Z,5.30
2022-11-06T16:08:47.117Z,5.30
2022-11-06T16:11:17.896Z,5.20
2022-11-06T16:13:46.645Z,5.20
2022-11-06T16:16:31.719Z,5.20
2022-11-06T16:18:58.821Z,5.10
2022-11-06T16:21:30.560Z,5.10
2022-11-06T16:23:57.269Z,5.10
2022-11-06T16:26:37.590Z,5.10
2022-11-06T16:29:15.605Z,5.10
2022-11-06T16:31:42.955Z,5.10
2022-11-06T16:34:31.845Z,5.10
2022-11-06T16:37:06.781Z,5.10
2022-11-06T16:39:52.516Z,5.10
2022-11-06T16:42:22.568Z,5.00
2022-11-06T16:45:08.308Z,5.00
2022-11-06T16:47:35.188Z,5.00
2022-11-06T16:50:05.824Z,5.00
2022-11-06T16:52:38.976Z,5.10
2022-11-06T16:55:08.108Z,5.10
2022-11-06T16:57:44.411Z,5.10
2022-11-06T17:00:20.573Z,5.10
2022-11-06T17:02:55.155Z,5.20
2022-11-06T17:05:28.568Z,5.20
2022-11-06T17:08:18.486Z,5.20
2022-11-06T17:10:56.691Z,5.20
2022-11-06T17:13:26.291Z,5.20
2022-11-06T17:15:57.574Z,5.20
2022-11-06T17:18:27.264Z,5.30
2022-11-06T17:20:59.037Z,5.20
2022-11-06T17:23:27.010Z,5.20
2022-11-06T17:26:01.021Z,5.20
2022-11-06T17:28:28.259Z,5.20
2022-11-06T17:30:55.327Z,5.10
2022-11-06T17:33:22.379Z,5.10
2022-11-06T17:35:49.809Z,5.10
2022-11-06T17:38:17.809Z,5.10
2022-11-06T17:40:45.590Z,5.10
2022-11-06T17:43:12.932Z,5.10
2022-11-06T17:45:42.205Z,5.10
2022-11-06T17:48:09.065Z,5.10
2022-11-06T17:50:55.930Z,5.10
2022-11-06T17:53:23.005Z,5.20
2022-11-06T17:55:49.855Z,5.20
2022-11-06T17:58:17.082Z,5.20
2022-11-06T18:00:44.105Z,5.20
2022-11-06T18:03:19.683Z,5.20
2022-11-06T18:05:47.198Z,5.20
2022-11-06T18:08:14.978Z,5.20
2022-11-06T18:10:42.125Z,5.20
2022-11-06T18:13:09.359Z,5.20
2022-11-06T18:15:36.966Z,5.20
2022-11-06T18:18:04.546Z,5.20
2022-11-06T18:20:31.317Z,5.20
2022-11-06T18:22:58.166Z,5.10
2022-11-06T18:25:24.958Z,5.10
2022-11-06T18:27:51.724Z,5.10
2022-11-06T18:30:18.707Z,5.10
2022-11-06T18:32:45.547Z,5.20
2022-11-06T18:35:12.587Z,5.20
2022-11-06T18:37:39.494Z,5.20
2022-11-06T18:40:06.909Z,5.20
2022-11-06T18:42:33.666Z,5.20
2022-11-06T18:45:00.464Z,5.20
2022-11-06T18:47:27.228Z,5.30
2022-11-06T18:49:54.040Z,5.30
2022-11-06T18:52:44.479Z,5.30
2022-11-06T18:55:08.119Z,5.40
2022-11-06T18:57:34.887Z,5.40
2022-11-06T19:00:01.964Z,5.50
2022-11-06T19:02:29.096Z,5.50
2022-11-06T19:04:56.044Z,5.50
2022-11-06T19:07:23.311Z,5.80
2022-11-06T19:09:50.425Z,5.90
2022-11-06T19:12:17.295Z,5.90
2022-11-06T19:14:44.129Z,6.00
2022-11-06T19:17:10.976Z,6.20
2022-11-06T19:19:37.830Z,6.50
2022-11-06T19:22:04.666Z,6.70
2022-11-06T19:24:33.070Z,7.10
2022-11-06T19:26:59.861Z,7.40
2022-11-06T19:29:26.630Z,7.50
2022-11-06T19:31:55.242Z,7.50
2022-11-06T19:34:25.763Z,7.60
2022-11-06T19:36:53.174Z,7.60
2022-11-06T19:39:20.146Z,7.60
2022-11-06T19:41:46.989Z,7.70
2022-11-06T19:44:14.462Z,7.60
2022-11-06T19:46:41.281Z,7.50
2022-11-06T19:49:09.986Z,7.30
2022-11-06T19:51:43.101Z,7.20
2022-11-06T19:54:11.222Z,7.10
2022-11-06T19:57:27.100Z,6.90
2022-11-06T19:59:24.967Z,6.80
2022-11-06T20:01:51.861Z,6.70
2022-11-06T20:04:19.105Z,6.50
2022-11-06T20:06:45.954Z,6.50
2022-11-06T20:09:13.001Z,6.40
2022-11-06T20:11:39.860Z,6.50
2022-11-06T20:14:07.070Z,6.50
2022-11-06T20:16:33.892Z,6.60
2022-11-06T20:19:01.037Z,6.60
2022-11-06T20:21:28.564Z,6.60
2022-11-06T20:23:57.165Z,6.70
2022-11-06T20:26:24.756Z,6.70
2022-11-06T20:28:51.695Z,6.70
2022-11-06T20:31:23.086Z,6.80
2022-11-06T20:33:50.300Z,6.70
2022-11-06T20:36:23.319Z,6.60
2022-11-06T20:38:52.290Z,6.50
2022-11-06T20:41:19.792Z,6.50
2022-11-06T20:43:47.117Z,6.50
2022-11-06T20:46:15.902Z,6.40
2022-11-06T20:48:44.885Z,6.30
2022-11-06T20:51:14.777Z,6.20
2022-11-06T20:53:42.070Z,6.20
2022-11-06T20:56:11.487Z,6.10
2022-11-06T20:58:38.685Z,6.20
2022-11-06T21:01:07.361Z,6.20
2022-11-06T21:03:34.644Z,6.20
2022-11-06T21:06:01.898Z,6.30
2022-11-06T21:08:29.306Z,6.30
2022-11-06T21:11:06.040Z,6.40
2022-11-06T21:13:33.742Z,6.40
2022-11-06T21:16:06.075Z,6.40
2022-11-06T21:18:36.144Z,6.50
2022-11-06T21:21:08.665Z,6.50
2022-11-06T21:23:35.660Z,6.50
2022-11-06T21:26:08.170Z,6.60
2022-11-06T21:28:36.667Z,6.60
2022-11-06T21:31:04.446Z,6.70
2022-11-06T21:33:31.694Z,6.70
2022-11-06T21:36:07.682Z,6.70
2022-11-06T21:38:34.887Z,6.70
2022-11-06T21:41:11.844Z,6.70
2022-11-06T21:43:39.130Z,6.80
2022-11-06T21:46:08.188Z,6.90
2022-11-06T21:48:50.825Z,6.90
2022-11-06T21:51:23.506Z,6.90
2022-11-06T21:54:09.311Z,6.90
2022-11-06T21:56:37.182Z,6.90
2022-11-06T21:59:06.015Z,6.90
2022-11-06T22:01:33.174Z,6.80
2022-11-06T22:04:01.042Z,6.90
2022-11-06T22:06:29.145Z,6.90
2022-11-06T22:08:58.986Z,6.90
2022-11-06T22:11:31.389Z,6.90
2022-11-06T22:14:00.554Z,6.90
2022-11-06T22:16:33.952Z,6.90
2022-11-06T22:19:00.802Z,6.90
2022-11-06T22:21:29.215Z,6.90
2022-11-06T22:23:56.540Z,6.90
2022-11-06T22:26:26.888Z,6.90
2022-11-06T22:28:55.240Z,6.90
2022-11-06T22:31:23.006Z,6.90
2022-11-06T22:33:53.662Z,6.90
2022-11-06T22:36:22.173Z,7.00
2022-11-06T22:38:50.138Z,7.00
2022-11-06T22:41:19.717Z,7.20
2022-11-06T22:43:46.565Z,7.30
2022-11-06T22:46:16.765Z,7.50
2022-11-06T22:48:44.409Z,7.50
2022-11-06T22:51:14.438Z,7.60
2022-11-06T22:53:41.671Z,7.60
2022-11-06T22:56:09.548Z,7.70
2022-11-06T22:58:36.438Z,7.70
2022-11-06T23:01:03.273Z,7.70
2022-11-06T23:03:30.953Z,7.80
2022-11-06T23:05:59.939Z,7.80
2022-11-06T23:08:27.366Z,7.80
2022-11-06T23:11:00.097Z,7.80
2022-11-06T23:13:27.120Z,7.80
2022-11-06T23:16:02.140Z,7.90
2022-11-06T23:18:28.999Z,7.80
2022-11-06T23:20:56.054Z,7.90
2022-11-06T23:23:23.026Z,7.90
2022-11-06T23:25:49.840Z,7.90
2022-11-06T23:28:16.699Z,7.90
2022-11-06T23:30:43.501Z,7.90
2022-11-06T23:33:10.844Z,7.80
2022-11-06T23:35:37.986Z,7.80
2022-11-06T23:38:04.780Z,7.80
2022-11-06T23:40:31.632Z,7.80
2022-11-06T23:42:59.680Z,7.90
2022-11-06T23:45:45.110Z,7.90
2022-11-06T23:48:13.777Z,7.90
2022-11-06T23:50:41.686Z,7.90
2022-11-06T23:53:08.549Z,7.80
2022-11-06T23:55:35.318Z,7.80
2022-11-06T23:58:02.142Z,7.80
